createdAt,value
2019-02-06T00:04:48.429Z,8.41
2019-02-06T00:09:53.066Z,8.47
2019-02-06T00:14:58.002Z,7.92
2019-02-06T00:20:02.568Z,8.47
2019-02-06T00:25:07.494Z,8.76
2019-02-06T00:30:15.160Z,8.80
2019-02-06T00:35:25.720Z,8.69
2019-02-06T00:40:26.336Z,8.59
2019-02-06T00:45:31.177Z,9.11
2019-02-06T00:50:36.229Z,8.90
2019-02-06T00:55:40.863Z,8.88
2019-02-06T01:00:45.611Z,8.90
2019-02-06T01:05:50.165Z,8.96
2019-02-06T01:10:54.788Z,8.80
2019-02-06T01:15:59.636Z,8.87
2019-02-06T01:21:05.505Z,7.89
2019-02-06T01:26:10.244Z,8.41
2019-02-06T01:31:15.501Z,8.78
2019-02-06T01:36:20.043Z,8.77
2019-02-06T01:41:24.667Z,8.13
2019-02-06T01:46:29.324Z,8.31
2019-02-06T01:51:34.272Z,8.12
2019-02-06T01:56:39.014Z,8.20
2019-02-06T02:01:43.864Z,7.84
2019-02-06T02:06:48.497Z,7.90
2019-02-06T02:11:53.131Z,8.17
2019-02-06T02:16:57.886Z,7.95
2019-02-06T02:22:02.623Z,8.04
2019-02-06T02:27:08.390Z,8.00
2019-02-06T02:32:13.341Z,7.95
2019-02-06T02:37:19.114Z,7.38
2019-02-06T02:42:23.849Z,7.57
2019-02-06T02:47:28.485Z,7.91
2019-02-06T02:52:33.247Z,7.36
2019-02-06T02:57:38.075Z,6.54
2019-02-06T03:02:44.221Z,7.08
2019-02-06T03:07:48.883Z,7.00
2019-02-06T03:12:53.540Z,7.28
2019-02-06T03:17:58.473Z,7.78
2019-02-06T03:23:03.122Z,7.10
2019-02-06T03:28:07.870Z,6.59
2019-02-06T03:33:12.513Z,6.45
2019-02-06T03:38:17.247Z,6.42
2019-02-06T03:43:21.992Z,7.14
2019-02-06T03:48:26.526Z,7.64
2019-02-06T03:53:31.271Z,7.39
2019-02-06T03:58:36.121Z,7.60
2019-02-06T04:03:40.759Z,8.22
2019-02-06T04:08:45.497Z,7.88
2019-02-06T04:13:50.140Z,8.36
2019-02-06T04:18:55.906Z,8.18
2019-02-06T04:24:00.540Z,6.45
2019-02-06T04:29:05.178Z,7.94
2019-02-06T04:34:09.929Z,8.04
2019-02-06T04:39:14.676Z,7.91
2019-02-06T04:44:19.625Z,8.30
2019-02-06T04:49:24.568Z,8.00
2019-02-06T04:54:30.849Z,8.34
2019-02-06T04:59:35.495Z,7.57
2019-02-06T05:04:40.535Z,8.11
2019-02-06T05:09:45.795Z,8.06
2019-02-06T05:14:50.541Z,6.96
2019-02-06T05:19:55.779Z,7.11
2019-02-06T05:25:00.752Z,7.62
2019-02-06T05:30:08.038Z,7.99
2019-02-06T05:35:12.790Z,8.15
2019-02-06T05:40:17.528Z,7.91
2019-02-06T05:45:24.006Z,8.35
2019-02-06T05:50:28.645Z,7.31
2019-02-06T05:55:33.503Z,8.11
2019-02-06T06:00:39.877Z,7.89
2019-02-06T06:05:44.635Z,7.53
2019-02-06T06:10:49.391Z,7.73
2019-02-06T06:15:54.209Z,7.77
2019-02-06T06:20:59.688Z,6.90
2019-02-06T06:26:04.627Z,7.59
2019-02-06T06:31:09.379Z,7.71
2019-02-06T06:36:14.101Z,7.71
2019-02-06T06:41:18.847Z,8.14
2019-02-06T06:46:23.590Z,8.32
2019-02-06T06:51:28.527Z,8.26
2019-02-06T06:56:33.175Z,8.50
2019-02-06T07:01:38.018Z,8.29
2019-02-06T07:06:42.865Z,8.64
2019-02-06T07:11:49.246Z,8.25
2019-02-06T07:16:54.030Z,8.44
2019-02-06T07:21:58.737Z,8.60
2019-02-06T07:27:03.576Z,8.49
2019-02-06T07:32:08.237Z,8.31
2019-02-06T07:37:12.962Z,8.30
2019-02-06T07:42:17.705Z,7.85
2019-02-06T07:47:22.444Z,8.35
2019-02-06T07:52:27.292Z,7.88
2019-02-06T07:57:32.036Z,8.03
2019-02-06T08:02:38.621Z,7.92
2019-02-06T08:07:43.354Z,7.74
2019-02-06T08:12:48.518Z,7.58
2019-02-06T08:17:53.155Z,7.28
2019-02-06T08:22:57.898Z,7.19
2019-02-06T08:28:02.641Z,7.08
2019-02-06T08:33:07.384Z,6.89
2019-02-06T08:38:12.124Z,7.17
2019-02-06T08:43:16.766Z,7.63
2019-02-06T08:48:21.502Z,7.78
2019-02-06T08:53:26.147Z,7.92
2019-02-06T08:58:30.781Z,7.91
2019-02-06T09:03:35.391Z,7.75
2019-02-06T09:08:40.173Z,7.53
2019-02-06T09:13:46.421Z,7.79
2019-02-06T09:18:50.980Z,7.39
2019-02-06T09:23:55.724Z,8.06
2019-02-06T09:29:00.683Z,7.95
2019-02-06T09:34:05.541Z,7.60
2019-02-06T09:39:11.914Z,8.12
2019-02-06T09:44:17.686Z,7.59
2019-02-06T09:49:22.724Z,7.72
2019-02-06T09:54:27.772Z,7.58
2019-02-06T09:59:32.422Z,7.98
2019-02-06T10:04:37.157Z,8.20
2019-02-06T10:09:41.799Z,8.00
2019-02-06T10:14:46.538Z,8.22
2019-02-06T10:19:51.181Z,8.34
2019-02-06T10:24:55.925Z,8.62
2019-02-06T10:30:03.632Z,8.54
2019-02-06T10:35:08.483Z,7.59
2019-02-06T10:40:13.532Z,7.84
2019-02-06T10:45:21.080Z,7.97
2019-02-06T10:50:29.264Z,8.09
2019-02-06T10:55:34.621Z,7.28
2019-02-06T11:00:42.063Z,6.92
2019-02-06T11:05:46.975Z,7.54
2019-02-06T11:10:52.227Z,6.90
2019-02-06T11:15:57.940Z,7.40
2019-02-06T11:21:02.953Z,7.07
2019-02-06T11:26:07.614Z,6.97
2019-02-06T11:31:12.550Z,6.46
2019-02-06T11:36:24.206Z,7.19
2019-02-06T11:41:27.852Z,6.46
2019-02-06T11:46:32.702Z,6.67
2019-02-06T11:51:37.644Z,7.51
2019-02-06T11:56:42.508Z,7.89
2019-02-06T12:01:49.857Z,6.90
2019-02-06T12:06:54.644Z,6.81
2019-02-06T12:11:59.482Z,7.08
2019-02-06T12:17:04.341Z,6.60
2019-02-06T12:22:09.178Z,6.47
2019-02-06T12:27:15.864Z,7.29
2019-02-06T12:32:20.597Z,7.04
2019-02-06T12:37:25.351Z,6.38
2019-02-06T12:42:30.089Z,6.74
2019-02-06T12:47:34.725Z,6.73
2019-02-06T12:52:39.558Z,7.08
2019-02-06T12:57:44.238Z,7.03
2019-02-06T13:02:50.608Z,6.65
2019-02-06T13:07:55.349Z,6.50
2019-02-06T13:13:00.188Z,6.57
2019-02-06T13:18:05.249Z,7.25
2019-02-06T13:23:09.981Z,6.61
2019-02-06T13:28:14.631Z,6.53
2019-02-06T13:33:19.387Z,7.10
2019-02-06T13:38:24.141Z,6.70
2019-02-06T13:43:29.256Z,7.48
2019-02-06T13:48:36.061Z,6.93
2019-02-06T13:53:42.492Z,7.38
2019-02-06T13:58:47.086Z,7.49
2019-02-06T14:03:52.019Z,7.67
2019-02-06T14:08:56.768Z,7.24
2019-02-06T14:14:01.610Z,7.65
2019-02-06T14:19:06.759Z,8.09
2019-02-06T14:24:23.601Z,7.44
2019-02-06T14:29:40.518Z,7.69
2019-02-06T14:34:50.855Z,7.86
2019-02-06T14:40:01.575Z,8.05
2019-02-06T14:45:15.430Z,8.25
2019-02-06T14:50:38.297Z,7.97
2019-02-06T14:55:46.124Z,7.85
2019-02-06T15:01:00.488Z,7.90
2019-02-06T15:06:19.251Z,7.59
2019-02-06T15:11:42.021Z,7.91
2019-02-06T15:17:06.418Z,7.98
2019-02-06T15:22:14.563Z,7.89
2019-02-06T15:27:41.924Z,7.65
2019-02-06T15:33:07.857Z,7.15
2019-02-06T15:38:18.638Z,6.72
2019-02-06T15:43:50.722Z,7.36
2019-02-06T15:49:07.755Z,7.39
2019-02-06T15:54:26.024Z,7.10
2019-02-06T15:59:46.011Z,6.69
2019-02-06T16:05:24.036Z,6.75
2019-02-06T16:10:34.820Z,6.61
2019-02-06T16:15:48.378Z,7.13
2019-02-06T16:21:17.207Z,6.23
2019-02-06T16:26:41.906Z,6.50
2019-02-06T16:31:59.207Z,6.27
2019-02-06T16:37:09.805Z,5.87
2019-02-06T16:42:35.839Z,5.08
2019-02-06T16:48:01.795Z,5.23
2019-02-06T16:53:15.229Z,5.35
2019-02-06T16:58:38.513Z,5.43
2019-02-06T17:04:00.766Z,6.08
2019-02-06T17:09:35.787Z,5.72
2019-02-06T17:15:03.294Z,6.05
2019-02-06T17:20:29.339Z,5.71
2019-02-06T17:25:58.147Z,5.62
2019-02-06T17:31:35.140Z,6.07
2019-02-06T17:36:43.677Z,5.95
2019-02-06T17:42:15.873Z,6.11
2019-02-06T17:47:26.140Z,6.34
2019-02-06T17:52:52.096Z,5.24
2019-02-06T17:57:56.801Z,5.86
2019-02-06T18:03:04.935Z,5.83
2019-02-06T18:08:09.674Z,5.97
2019-02-06T18:13:14.522Z,6.16
2019-02-06T18:18:19.338Z,5.91
2019-02-06T18:23:24.402Z,5.86
2019-02-06T18:28:29.659Z,5.76
2019-02-06T18:33:34.806Z,5.77
2019-02-06T18:38:46.927Z,5.65
2019-02-06T18:43:47.956Z,5.73
2019-02-06T18:48:53.149Z,5.08
2019-02-06T18:53:58.401Z,4.68
2019-02-06T18:59:03.351Z,4.93
2019-02-06T19:04:08.113Z,4.84
2019-02-06T19:09:14.271Z,5.13
2019-02-06T19:14:19.006Z,4.87
2019-02-06T19:19:25.416Z,5.27
2019-02-06T19:24:31.267Z,5.16
2019-02-06T19:29:35.999Z,4.77
2019-02-06T19:34:40.746Z,5.16
2019-02-06T19:39:45.586Z,5.37
2019-02-06T19:44:51.662Z,4.91
2019-02-06T19:49:56.301Z,4.46
2019-02-06T19:55:01.049Z,4.95
2019-02-06T20:00:11.832Z,5.40
2019-02-06T20:05:20.464Z,5.23
2019-02-06T20:10:34.120Z,4.76
2019-02-06T20:15:40.601Z,4.89
2019-02-06T20:20:45.751Z,4.96
2019-02-06T20:25:51.316Z,4.43
2019-02-06T20:30:57.031Z,4.12
2019-02-06T20:36:02.534Z,4.31
2019-02-06T20:41:08.217Z,4.17
2019-02-06T20:46:16.303Z,4.73
2019-02-06T20:51:23.037Z,4.56
2019-02-06T20:56:28.263Z,4.80
2019-02-06T21:01:33.420Z,4.66
2019-02-06T21:06:38.576Z,4.20
2019-02-06T21:11:43.854Z,4.44
2019-02-06T21:16:50.639Z,5.23
2019-02-06T21:21:55.752Z,5.18
2019-02-06T21:27:00.409Z,5.02
2019-02-06T21:32:05.262Z,5.14
2019-02-06T21:37:10.511Z,5.17
2019-02-06T21:42:15.460Z,5.57
2019-02-06T21:47:20.346Z,5.06
2019-02-06T21:52:25.041Z,4.55
2019-02-06T21:57:29.791Z,5.08
2019-02-06T22:02:34.528Z,5.23
2019-02-06T22:07:39.275Z,5.28
2019-02-06T22:12:44.223Z,4.52
2019-02-06T22:17:48.960Z,5.03
2019-02-06T22:22:53.709Z,4.36
2019-02-06T22:27:58.340Z,5.18
2019-02-06T22:33:03.218Z,5.29
2019-02-06T22:38:09.203Z,5.00
2019-02-06T22:43:15.034Z,5.49
2019-02-06T22:48:21.528Z,5.46
2019-02-06T22:53:27.153Z,5.26
2019-02-06T22:58:31.836Z,5.22
2019-02-06T23:03:37.996Z,5.14
2019-02-06T23:08:42.739Z,5.47
2019-02-06T23:13:47.585Z,5.39
2019-02-06T23:18:52.531Z,4.81
2019-02-06T23:23:58.500Z,5.38
2019-02-06T23:29:03.248Z,5.25
2019-02-06T23:34:07.983Z,4.96
2019-02-06T23:39:14.682Z,5.23
2019-02-06T23:44:28.503Z,5.21
2019-02-06T23:49:26.620Z,4.56
2019-02-06T23:54:31.254Z,4.74
2019-02-06T23:59:35.797Z,5.22
